This is the latest recevied weather packets stored in our database for station/object KD7CTY. If no packets are shown the sender has not sent any weather packets the latest 10 day(s).
| Time | Temp. | Humidity | Pressure | Rain* | Wind** | Luminosity | Snow |
|---|---|---|---|---|---|---|---|
| 1777879619 | 14.44° C | 66% | 1008.7 hPa | 0 mm | - | 0 W/m² | - |
| 1777879315 | 15° C | 63% | 1008.6 hPa | 0 mm | - | 0 W/m² | - |
| 1777879012 | 15° C | 64% | 1008.8 hPa | 0 mm | - | 0 W/m² | - |
| 1777878709 | 15° C | 63% | 1008.8 hPa | 0 mm | - | 0 W/m² | - |
| 1777878407 | 15.56° C | 62% | 1008.7 hPa | 0 mm | - | 0 W/m² | - |
| 1777878103 | 15.56° C | 61% | 1008.8 hPa | 0 mm | - | 0 W/m² | - |
| 1777877799 | 15.56° C | 62% | 1008.8 hPa | 0 mm | - | 0 W/m² | - |
| 1777877497 | 15.56° C | 63% | 1008.7 hPa | 0 mm | - | 0 W/m² | - |
| 1777877193 | 16.11° C | 61% | 1009 hPa | 0 mm | - | 0 W/m² | - |
| 1777876891 | 16.11° C | 58% | 1009 hPa | 0 mm | - | 0 W/m² | - |
| 1777876588 | 16.67° C | 57% | 1008.6 hPa | 0 mm | - | 0 W/m² | - |
| 1777876286 | 16.67° C | 57% | 1008.8 hPa | 0 mm | - | 0 W/m² | - |
| 1777875981 | 16.67° C | 57% | 1009 hPa | 0 mm | - | 0 W/m² | - |
| 1777875677 | 17.22° C | 55% | 1008.5 hPa | 0 mm | - | 0 W/m² | - |
| 1777875375 | 17.78° C | 55% | 1008.5 hPa | 0 mm | - | 0 W/m² | - |
| 1777875071 | 17.78° C | 54% | 1008.7 hPa | 0 mm | - | 0 W/m² | - |
| 1777874768 | 17.78° C | 53% | 1008.6 hPa | 0 mm | - | 0 W/m² | - |
| 1777874463 | 18.33° C | 52% | 1008.8 hPa | 0 mm | - | 0 W/m² | - |
| 1777874162 | 19.44° C | 50% | 1008.6 hPa | 0 mm | - | 0 W/m² | - |
| 1777873858 | 20° C | 45% | 1008.5 hPa | 0 mm | - | 0 W/m² | - |
| 1777873555 | 20° C | 44% | 1008.7 hPa | 0 mm | - | 0 W/m² | - |
| 1777873253 | 20.56° C | 42% | 1008.4 hPa | 0 mm | - | 0 W/m² | - |
| 1777872949 | 20.56° C | 42% | 1008.5 hPa | 0 mm | - | 0 W/m² | - |
| 1777872647 | 20.56° C | 42% | 1008.6 hPa | 0 mm | - | 0 W/m² | - |
| 1777872344 | 20.56° C | 43% | 1008.4 hPa | 0 mm | - | 0 W/m² | - |
* Rain latest hour (hover to see other rain measurements)
** Current wind speed in m/s (hover to see current wind gust speed)